createdAt,value
2023-04-27T00:01:46.734Z,98987.11
2023-04-27T00:04:14.734Z,98995.58
2023-04-27T00:06:43.473Z,99001.98
2023-04-27T00:09:11.115Z,99009.40
2023-04-27T00:11:38.466Z,99016.60
2023-04-27T00:14:05.990Z,99022.61
2023-04-27T00:16:33.271Z,99033.11
2023-04-27T00:19:01.058Z,99041.85
2023-04-27T00:21:28.317Z,99043.17
2023-04-27T00:23:55.702Z,99044.21
2023-04-27T00:26:23.167Z,99045.98
2023-04-27T00:28:50.961Z,99045.94
2023-04-27T00:31:18.243Z,99050.33
2023-04-27T00:33:45.596Z,99057.66
2023-04-27T00:36:13.565Z,99061.39
2023-04-27T00:38:41.534Z,99065.94
2023-04-27T00:41:08.864Z,99080.02
2023-04-27T00:43:46.144Z,99080.56
2023-04-27T00:46:13.938Z,99086.52
2023-04-27T00:48:42.008Z,99089.55
2023-04-27T00:51:30.474Z,99082.86
2023-04-27T00:53:59.054Z,99087.93
2023-04-27T00:56:26.278Z,99087.34
2023-04-27T00:58:53.632Z,99098.91
2023-04-27T01:01:20.984Z,99103.31
2023-04-27T01:03:49.118Z,99114.48
2023-04-27T01:06:16.639Z,99122.49
2023-04-27T01:08:44.409Z,99125.98
2023-04-27T01:11:11.708Z,99123.78
2023-04-27T01:13:39.758Z,99120.59
2023-04-27T01:16:08.167Z,99118.61
2023-04-27T01:18:35.514Z,99114.47
2023-04-27T01:21:03.421Z,99105.61
2023-04-27T01:23:32.408Z,99107.78
2023-04-27T01:25:59.652Z,99117.47
2023-04-27T01:28:26.895Z,99124.40
2023-04-27T01:30:54.213Z,99122.23
2023-04-27T01:33:22.643Z,99122.73
2023-04-27T01:35:50.379Z,99128.36
2023-04-27T01:38:17.969Z,99135.17
2023-04-27T01:40:45.215Z,99143.86
2023-04-27T01:43:13.707Z,99146.67
2023-04-27T01:45:40.984Z,99150.14
2023-04-27T01:48:08.300Z,99161.63
2023-04-27T01:50:35.665Z,99174.33
2023-04-27T01:53:03.851Z,99184.06
2023-04-27T01:55:31.438Z,99185.79
2023-04-27T01:57:58.748Z,99174.36
2023-04-27T02:00:25.980Z,99164.46
2023-04-27T02:02:57.733Z,99170.79
2023-04-27T02:05:25.208Z,99177.84
2023-04-27T02:07:53.258Z,99197.19
2023-04-27T02:10:22.857Z,99217.61
2023-04-27T02:12:50.171Z,99243.50
2023-04-27T02:15:17.486Z,99254.30
2023-04-27T02:17:45.774Z,99246.91
2023-04-27T02:20:13.376Z,99262.31
2023-04-27T02:22:44.997Z,99261.64
2023-04-27T02:25:13.041Z,99249.44
2023-04-27T02:27:41.673Z,99267.96
2023-04-27T02:30:10.110Z,99274.98
2023-04-27T02:32:38.037Z,99279.35
2023-04-27T02:35:05.745Z,99269.16
2023-04-27T02:37:33.237Z,99256.39
2023-04-27T02:40:00.598Z,99284.85
2023-04-27T02:42:27.866Z,99335.30
2023-04-27T02:44:55.091Z,99344.34
2023-04-27T02:47:22.332Z,99340.77
2023-04-27T02:49:49.624Z,99347.15
2023-04-27T02:52:16.859Z,99359.30
2023-04-27T02:54:44.118Z,99379.70
2023-04-27T02:57:11.643Z,99385.12
2023-04-27T02:59:39.120Z,99391.71
2023-04-27T03:02:06.406Z,99400.22
2023-04-27T03:04:33.664Z,99417.00
2023-04-27T03:07:01.062Z,99436.57
2023-04-27T03:09:28.280Z,99426.27
2023-04-27T03:11:57.952Z,99423.85
2023-04-27T03:14:25.231Z,99418.84
2023-04-27T03:16:52.951Z,99407.41
2023-04-27T03:19:20.168Z,99408.24
2023-04-27T03:21:47.522Z,99401.29
2023-04-27T03:24:15.855Z,99413.04
2023-04-27T03:26:43.472Z,99420.08
2023-04-27T03:29:10.718Z,99427.27
2023-04-27T03:31:37.992Z,99437.78
2023-04-27T03:34:05.293Z,99485.61
2023-04-27T03:36:32.519Z,99516.19
2023-04-27T03:38:59.742Z,99521.98
2023-04-27T03:41:27.216Z,99537.67
2023-04-27T03:43:54.528Z,99552.56
2023-04-27T03:46:22.003Z,99554.52
2023-04-27T03:48:49.604Z,99561.77
2023-04-27T03:51:17.285Z,99565.98
2023-04-27T03:53:45.754Z,99572.95
2023-04-27T03:56:14.071Z,99585.52
2023-04-27T03:58:41.403Z,99599.76
2023-04-27T04:01:19.835Z,99617.52
2023-04-27T04:03:48.552Z,99657.39
2023-04-27T04:06:15.956Z,99695.30
2023-04-27T04:08:43.252Z,99732.67
2023-04-27T04:11:10.734Z,99760.23
2023-04-27T04:13:38.220Z,99783.04
2023-04-27T04:16:06.913Z,99812.52
2023-04-27T04:18:35.008Z,99850.80
2023-04-27T04:21:02.961Z,99892.88
2023-04-27T04:23:30.216Z,99896.66
2023-04-27T04:25:58.120Z,99891.45
2023-04-27T04:28:27.047Z,99897.61
2023-04-27T04:30:54.332Z,99899.27
2023-04-27T04:33:21.677Z,99879.06
2023-04-27T04:35:49.309Z,99889.86
2023-04-27T04:38:17.157Z,99901.14
2023-04-27T04:40:46.009Z,99902.13
2023-04-27T04:43:13.690Z,99902.04
2023-04-27T04:45:42.907Z,99907.70
2023-04-27T04:48:10.524Z,99910.15
2023-04-27T04:50:37.856Z,99917.69
2023-04-27T04:53:05.113Z,99917.89
2023-04-27T04:55:33.533Z,99922.84
2023-04-27T04:58:00.863Z,99923.23
2023-04-27T05:00:28.877Z,99928.09
2023-04-27T05:02:56.465Z,99925.02
2023-04-27T05:05:23.855Z,99926.95
2023-04-27T05:07:51.209Z,99929.56
2023-04-27T05:10:18.508Z,99923.06
2023-04-27T05:12:45.920Z,99915.05
2023-04-27T05:15:13.249Z,99905.30
2023-04-27T05:17:40.619Z,99923.89
2023-04-27T05:20:09.776Z,99927.84
2023-04-27T05:22:37.540Z,99920.59
2023-04-27T05:25:05.247Z,99912.96
2023-04-27T05:27:32.479Z,99903.64
2023-04-27T05:29:59.713Z,99881.64
2023-04-27T05:32:27.044Z,99863.92
2023-04-27T05:34:54.281Z,99843.73
2023-04-27T05:37:21.561Z,99829.79
2023-04-27T05:39:48.848Z,99822.21
2023-04-27T05:42:16.528Z,99819.86
2023-04-27T05:44:44.141Z,99825.57
2023-04-27T05:47:11.380Z,99835.46
2023-04-27T05:49:38.976Z,99858.67
2023-04-27T05:52:06.445Z,99876.45
2023-04-27T05:54:33.814Z,99879.23
2023-04-27T05:57:01.217Z,99884.06
2023-04-27T05:59:29.630Z,99885.90
2023-04-27T06:01:57.345Z,99889.90
2023-04-27T06:04:25.931Z,99880.52
2023-04-27T06:06:53.559Z,99878.76
2023-04-27T06:09:21.041Z,99879.15
2023-04-27T06:11:48.398Z,99875.23
2023-04-27T06:14:17.407Z,99858.52
2023-04-27T06:16:44.782Z,99789.44
2023-04-27T06:19:12.664Z,99700.19
2023-04-27T06:21:40.234Z,99629.08
2023-04-27T06:24:07.608Z,99569.19
2023-04-27T06:26:35.047Z,99498.77
2023-04-27T06:29:04.341Z,99435.75
2023-04-27T06:31:31.671Z,99376.58
2023-04-27T06:33:58.975Z,99335.96
2023-04-27T06:36:29.465Z,99305.77
2023-04-27T06:38:56.784Z,99228.86
2023-04-27T06:41:25.266Z,99164.59
2023-04-27T06:43:52.984Z,99077.69
2023-04-27T06:46:20.489Z,98995.68
2023-04-27T06:48:47.790Z,98871.55
2023-04-27T06:51:15.203Z,98787.71
2023-04-27T06:53:42.792Z,98755.55
2023-04-27T06:56:12.698Z,98703.35
2023-04-27T06:58:40.030Z,98637.70
2023-04-27T07:01:07.324Z,98599.73
2023-04-27T07:03:37.872Z,98587.98
2023-04-27T07:06:06.102Z,98553.51
2023-04-27T07:08:33.949Z,98524.61
2023-04-27T07:11:01.236Z,98475.55
2023-04-27T07:13:30.754Z,98409.63
2023-04-27T07:15:58.250Z,98356.34
2023-04-27T07:18:28.328Z,98356.67
2023-04-27T07:20:56.066Z,98362.20
2023-04-27T07:23:23.452Z,98360.41
2023-04-27T07:25:50.807Z,98348.67
2023-04-27T07:28:18.769Z,98343.08
2023-04-27T07:30:46.162Z,98343.65
2023-04-27T07:33:32.998Z,98324.02
2023-04-27T07:36:00.330Z,98316.05
2023-04-27T07:38:31.724Z,98323.31
2023-04-27T07:41:00.465Z,98354.28
2023-04-27T07:43:28.537Z,98387.43
2023-04-27T07:45:58.747Z,98378.72
2023-04-27T07:48:36.646Z,98401.45
2023-04-27T07:51:16.258Z,98422.02
2023-04-27T07:53:44.586Z,98421.60
2023-04-27T07:56:12.804Z,98439.21
2023-04-27T07:58:40.058Z,98437.61
2023-04-27T08:01:07.658Z,98419.75
2023-04-27T08:03:35.269Z,98403.84
2023-04-27T08:06:05.089Z,98406.11
2023-04-27T08:08:33.309Z,98432.60
2023-04-27T08:11:01.333Z,98428.52
2023-04-27T08:13:28.766Z,98427.23
2023-04-27T08:15:58.844Z,98469.63
2023-04-27T08:18:26.621Z,98479.04
2023-04-27T08:20:54.347Z,98478.84
2023-04-27T08:23:27.984Z,98470.15
2023-04-27T08:25:55.544Z,98457.56
2023-04-27T08:28:23.814Z,98447.11
2023-04-27T08:30:52.100Z,98448.20
2023-04-27T08:33:19.441Z,98439.54
2023-04-27T08:35:47.618Z,98465.57
2023-04-27T08:38:15.280Z,98490.35
2023-04-27T08:40:45.756Z,98492.91
2023-04-27T08:43:13.297Z,98518.69
2023-04-27T08:45:44.432Z,98534.20
2023-04-27T08:48:11.835Z,98550.55
2023-04-27T08:50:39.325Z,98547.06
2023-04-27T08:53:06.689Z,98568.08
2023-04-27T08:55:34.325Z,98586.73
2023-04-27T08:58:03.116Z,98557.90
2023-04-27T09:00:41.976Z,98552.34
2023-04-27T09:03:42.854Z,98556.98
2023-04-27T09:06:13.592Z,98575.75
2023-04-27T09:08:49.201Z,98617.53
2023-04-27T09:11:28.435Z,98611.02
2023-04-27T09:13:55.894Z,98620.73
2023-04-27T09:16:24.306Z,98624.08
2023-04-27T09:18:51.838Z,98618.83
2023-04-27T09:21:26.247Z,98606.84
2023-04-27T09:23:53.734Z,98644.45
2023-04-27T09:26:26.141Z,98688.75
2023-04-27T09:28:58.044Z,98705.70
2023-04-27T09:31:33.633Z,98688.92
2023-04-27T09:34:01.474Z,98678.86
2023-04-27T09:36:30.996Z,98676.61
2023-04-27T09:38:58.689Z,98643.66
2023-04-27T09:41:26.179Z,98672.98
2023-04-27T09:43:54.768Z,98672.75
2023-04-27T09:46:23.879Z,98646.08
2023-04-27T09:48:51.796Z,98654.47
2023-04-27T09:51:19.132Z,98632.61
2023-04-27T09:53:50.416Z,98650.36
2023-04-27T09:56:51.756Z,98739.80
2023-04-27T09:59:22.211Z,98840.41
2023-04-27T10:01:52.021Z,98918.77
2023-04-27T10:04:50.510Z,98941.79
2023-04-27T10:07:17.838Z,98950.56
2023-04-27T10:09:51.675Z,98983.91
2023-04-27T10:12:33.274Z,98998.23
2023-04-27T10:15:01.643Z,99001.73
2023-04-27T10:17:33.548Z,99037.10
2023-04-27T10:20:05.384Z,99030.59
2023-04-27T10:22:42.843Z,99030.67
2023-04-27T10:25:41.912Z,99031.74
2023-04-27T10:28:16.107Z,99014.96
2023-04-27T10:30:46.489Z,99009.39
2023-04-27T10:33:16.938Z,99014.81
2023-04-27T10:35:46.437Z,99014.63
2023-04-27T10:38:17.867Z,99001.60
2023-04-27T10:40:46.468Z,98983.52
2023-04-27T10:43:16.412Z,98989.40
2023-04-27T10:45:44.653Z,99020.40
2023-04-27T10:48:17.928Z,99053.98
2023-04-27T10:50:46.109Z,99078.36
2023-04-27T10:53:14.500Z,99084.59
2023-04-27T10:55:41.949Z,99098.71
2023-04-27T10:58:10.023Z,99113.52
2023-04-27T11:00:44.266Z,99130.59
2023-04-27T11:03:21.164Z,99140.33
2023-04-27T11:05:49.745Z,99138.52
2023-04-27T11:08:18.216Z,99149.53
2023-04-27T11:10:49.525Z,99157.45
2023-04-27T11:13:23.483Z,99153.75
2023-04-27T11:15:51.939Z,99153.17
2023-04-27T11:18:20.398Z,99159.80
2023-04-27T11:20:54.409Z,99161.37
2023-04-27T11:23:25.947Z,99161.90
2023-04-27T11:25:53.264Z,99159.72
2023-04-27T11:28:20.700Z,99159.15
2023-04-27T11:30:49.678Z,99152.71
2023-04-27T11:33:17.039Z,99152.84
2023-04-27T11:35:44.374Z,99154.98
2023-04-27T11:38:22.292Z,99155.83
2023-04-27T11:41:06.932Z,99158.42
2023-04-27T11:43:34.622Z,99154.05
2023-04-27T11:46:06.265Z,99151.49
2023-04-27T11:48:33.616Z,99148.50
2023-04-27T11:51:01.603Z,99139.67
2023-04-27T11:53:36.836Z,99126.09
2023-04-27T11:56:05.804Z,99111.58
2023-04-27T11:58:34.355Z,99108.48
2023-04-27T12:01:01.759Z,99113.08
2023-04-27T12:03:29.602Z,99112.18
2023-04-27T12:06:11.345Z,99110.21
2023-04-27T12:08:58.546Z,99104.32
2023-04-27T12:11:27.071Z,99101.17
2023-04-27T12:14:05.879Z,99096.52
2023-04-27T12:16:35.056Z,99095.44
2023-04-27T12:19:02.708Z,99085.66
2023-04-27T12:21:30.059Z,99070.20
2023-04-27T12:23:57.521Z,99048.85
2023-04-27T12:26:24.976Z,99021.77
2023-04-27T12:28:52.366Z,98983.91
2023-04-27T12:31:26.883Z,98967.41
2023-04-27T12:33:55.964Z,98966.02
2023-04-27T12:36:23.408Z,98993.71
2023-04-27T12:38:52.112Z,99006.42
2023-04-27T12:41:20.588Z,99021.66
2023-04-27T12:43:48.898Z,99052.20
2023-04-27T12:46:16.483Z,99057.42
2023-04-27T12:48:44.008Z,99046.35
2023-04-27T12:51:11.634Z,99035.73
2023-04-27T12:53:41.650Z,99021.28
2023-04-27T12:56:11.481Z,99007.88
2023-04-27T12:58:38.720Z,99001.89
2023-04-27T13:01:12.536Z,98995.96
2023-04-27T13:03:48.099Z,98979.10
2023-04-27T13:06:15.445Z,98959.55
2023-04-27T13:08:42.795Z,98953.02
2023-04-27T13:11:10.125Z,98955.42
2023-04-27T13:13:37.488Z,98955.55
2023-04-27T13:16:04.882Z,98949.73
2023-04-27T13:18:34.719Z,98965.23
2023-04-27T13:21:03.469Z,98967.73
2023-04-27T13:23:31.147Z,98969.05
2023-04-27T13:25:59.238Z,98972.65
2023-04-27T13:28:26.598Z,98968.93
2023-04-27T13:30:53.984Z,98975.52
2023-04-27T13:33:23.574Z,98990.45
2023-04-27T13:35:51.894Z,98971.13
2023-04-27T13:38:19.254Z,98952.12
2023-04-27T13:40:46.780Z,98949.06
2023-04-27T13:43:14.010Z,98944.02
2023-04-27T13:45:42.780Z,98941.39
2023-04-27T13:48:10.225Z,98929.55
2023-04-27T13:50:37.525Z,98919.64
2023-04-27T13:53:04.851Z,98913.26
2023-04-27T13:55:32.082Z,98928.05
2023-04-27T13:57:59.547Z,98942.89
2023-04-27T14:00:29.046Z,98945.79
2023-04-27T14:02:56.401Z,98943.45
2023-04-27T14:05:29.587Z,98934.58
2023-04-27T14:08:00.684Z,98923.23
2023-04-27T14:10:28.128Z,98914.48
2023-04-27T14:12:56.809Z,98910.20
2023-04-27T14:15:24.181Z,98907.39
2023-04-27T14:17:51.576Z,98899.08
2023-04-27T14:20:18.840Z,98911.50
2023-04-27T14:22:47.084Z,98918.80
2023-04-27T14:25:14.360Z,98911.83
2023-04-27T14:27:41.676Z,98903.76
2023-04-27T14:30:09.539Z,98886.84
2023-04-27T14:32:36.929Z,98881.59
2023-04-27T14:35:04.415Z,98880.45
2023-04-27T14:37:31.676Z,98876.16
2023-04-27T14:39:59.065Z,98867.18
2023-04-27T14:42:26.350Z,98857.34
2023-04-27T14:44:53.693Z,98855.85
2023-04-27T14:47:21.133Z,98865.28
2023-04-27T14:49:48.587Z,98865.31
2023-04-27T14:52:16.047Z,98862.94
2023-04-27T14:54:43.290Z,98865.54
2023-04-27T14:57:10.934Z,98871.46
2023-04-27T14:59:38.248Z,98869.65
2023-04-27T15:02:06.034Z,98861.81
2023-04-27T15:04:35.686Z,98838.74
2023-04-27T15:07:02.951Z,98782.97
2023-04-27T15:09:30.226Z,98727.44
2023-04-27T15:11:57.420Z,98645.13
2023-04-27T15:14:24.670Z,98502.61
2023-04-27T15:16:52.030Z,98398.35
2023-04-27T15:19:19.290Z,98340.90
2023-04-27T15:21:48.440Z,98279.58
2023-04-27T15:24:15.772Z,98246.27
2023-04-27T15:27:01.691Z,98238.27
2023-04-27T15:29:28.922Z,98242.67
2023-04-27T15:31:56.556Z,98256.38
2023-04-27T15:34:23.794Z,98273.98
2023-04-27T15:36:51.524Z,98305.20
2023-04-27T15:39:18.733Z,98328.30
2023-04-27T15:41:45.977Z,98358.27
2023-04-27T15:44:13.274Z,98373.38
2023-04-27T15:46:40.585Z,98386.49
2023-04-27T15:49:07.932Z,98392.70
2023-04-27T15:51:35.187Z,98406.98
2023-04-27T15:54:02.438Z,98415.84
2023-04-27T15:56:30.852Z,98423.42
2023-04-27T15:58:58.581Z,98433.39
2023-04-27T16:01:26.362Z,98441.77
2023-04-27T16:03:53.824Z,98449.89
2023-04-27T16:06:21.604Z,98459.75
2023-04-27T16:08:49.098Z,98465.84
2023-04-27T16:11:16.365Z,98468.70
2023-04-27T16:13:43.612Z,98473.23
2023-04-27T16:16:10.927Z,98481.08
2023-04-27T16:18:41.454Z,98482.10
2023-04-27T16:21:08.709Z,98488.35
2023-04-27T16:23:35.927Z,98494.17
2023-04-27T16:26:03.160Z,98496.52
2023-04-27T16:28:30.499Z,98499.40
2023-04-27T16:30:57.786Z,98505.89
2023-04-27T16:33:25.998Z,98506.06
2023-04-27T16:35:53.394Z,98501.45
2023-04-27T16:38:21.034Z,98506.36
2023-04-27T16:40:48.677Z,98508.80
2023-04-27T16:43:15.954Z,98505.31
2023-04-27T16:45:43.245Z,98508.19
2023-04-27T16:48:13.336Z,98507.23
2023-04-27T16:50:41.262Z,98511.35
2023-04-27T16:53:09.500Z,98516.79
2023-04-27T16:55:36.788Z,98523.40
2023-04-27T16:58:04.054Z,98531.55
2023-04-27T17:00:31.364Z,98543.69
2023-04-27T17:02:58.707Z,98554.82
2023-04-27T17:05:26.060Z,98575.10
2023-04-27T17:07:53.558Z,98588.70
2023-04-27T17:10:20.848Z,98597.74
2023-04-27T17:12:48.089Z,98601.44
2023-04-27T17:15:15.450Z,98610.70
2023-04-27T17:17:42.739Z,98620.27
2023-04-27T17:20:10.872Z,98637.48
2023-04-27T17:22:38.116Z,98655.48
2023-04-27T17:25:05.876Z,98675.33
2023-04-27T17:27:33.167Z,98689.13
2023-04-27T17:30:00.935Z,98699.18
2023-04-27T17:32:28.216Z,98714.75
2023-04-27T17:34:55.644Z,98730.60
2023-04-27T17:37:22.991Z,98743.56
2023-04-27T17:39:54.696Z,98740.39
2023-04-27T17:42:21.980Z,98758.19
2023-04-27T17:44:49.207Z,98775.52
2023-04-27T17:47:18.936Z,98796.77
2023-04-27T17:49:46.485Z,98811.06
2023-04-27T17:52:13.706Z,98824.76
2023-04-27T17:54:41.391Z,98836.63
2023-04-27T17:57:09.661Z,98852.02
2023-04-27T17:59:37.070Z,98882.03
2023-04-27T18:02:04.358Z,98908.20
2023-04-27T18:04:31.812Z,98935.75
2023-04-27T18:06:59.242Z,98957.83
2023-04-27T18:09:27.373Z,98976.49
2023-04-27T18:11:54.615Z,99000.75
2023-04-27T18:14:21.833Z,99033.05
2023-04-27T18:16:49.165Z,99069.66
2023-04-27T18:19:16.621Z,99114.61
2023-04-27T18:21:44.251Z,99155.29
2023-04-27T18:24:11.543Z,99194.04
2023-04-27T18:26:38.894Z,99229.29
2023-04-27T18:29:06.858Z,99257.65
2023-04-27T18:31:35.289Z,99285.61
2023-04-27T18:34:02.602Z,99326.51
2023-04-27T18:36:30.046Z,99370.91
2023-04-27T18:38:58.526Z,99417.23
2023-04-27T18:41:26.292Z,99468.45
2023-04-27T18:43:53.746Z,99517.58
2023-04-27T18:46:21.312Z,99565.52
2023-04-27T18:48:48.872Z,99622.58
2023-04-27T18:51:16.229Z,99690.90
2023-04-27T18:53:43.600Z,99740.67
2023-04-27T18:56:11.340Z,99780.14
2023-04-27T18:58:38.593Z,99835.02
2023-04-27T19:01:06.210Z,99880.77
2023-04-27T19:03:33.715Z,99928.27
2023-04-27T19:06:01.189Z,99972.60
2023-04-27T19:08:28.730Z,100010.84
2023-04-27T19:10:56.529Z,100039.66
2023-04-27T19:13:24.870Z,100043.38
2023-04-27T19:15:52.429Z,100057.80
2023-04-27T19:18:19.842Z,100069.23
2023-04-27T19:20:47.344Z,100057.34
2023-04-27T19:23:15.310Z,100043.83
2023-04-27T19:25:42.668Z,100032.77
2023-04-27T19:28:10.645Z,100022.48
2023-04-27T19:30:38.109Z,100007.14
2023-04-27T19:33:05.473Z,99995.72
2023-04-27T19:35:32.806Z,100007.95
2023-04-27T19:38:00.224Z,100000.66
2023-04-27T19:40:27.624Z,99993.11
2023-04-27T19:42:54.861Z,99999.27
2023-04-27T19:45:22.628Z,99986.06
2023-04-27T19:47:50.140Z,99971.70
2023-04-27T19:50:17.540Z,99954.20
2023-04-27T19:52:44.793Z,99936.41
2023-04-27T19:55:12.260Z,99918.90
2023-04-27T19:57:39.604Z,99897.75
2023-04-27T20:00:11.912Z,99878.90
2023-04-27T20:02:42.311Z,99864.72
2023-04-27T20:05:10.514Z,99849.04
2023-04-27T20:07:38.136Z,99835.63
2023-04-27T20:10:06.017Z,99815.96
2023-04-27T20:12:47.896Z,99802.66
2023-04-27T20:15:20.779Z,99852.16
2023-04-27T20:17:48.069Z,100046.98
2023-04-27T20:20:15.489Z,100139.04
2023-04-27T20:22:43.058Z,100120.63
2023-04-27T20:25:10.916Z,100099.52
2023-04-27T20:27:38.177Z,100075.34
2023-04-27T20:30:06.239Z,100054.85
2023-04-27T20:32:33.592Z,100032.19
2023-04-27T20:35:02.738Z,100012.27
2023-04-27T20:37:30.054Z,99998.41
2023-04-27T20:39:57.295Z,99988.27
2023-04-27T20:42:24.859Z,99978.05
2023-04-27T20:44:55.137Z,99971.64
2023-04-27T20:47:22.754Z,99957.11
2023-04-27T20:49:49.997Z,99933.04
2023-04-27T20:52:17.390Z,99907.84
2023-04-27T20:54:44.705Z,99888.89
2023-04-27T20:57:14.517Z,99867.61
2023-04-27T20:59:41.976Z,99852.45
2023-04-27T21:02:09.337Z,99848.35
2023-04-27T21:04:36.717Z,99838.80
2023-04-27T21:07:04.240Z,99826.26
2023-04-27T21:09:31.807Z,99809.45
2023-04-27T21:11:59.159Z,99795.11
2023-04-27T21:14:26.508Z,99790.86
2023-04-27T21:16:53.855Z,99785.38
2023-04-27T21:19:21.316Z,99777.33
2023-04-27T21:21:48.673Z,99760.20
2023-04-27T21:24:15.929Z,99751.54
2023-04-27T21:26:43.181Z,99737.44
2023-04-27T21:29:10.438Z,99725.88
2023-04-27T21:31:37.893Z,99719.41
2023-04-27T21:34:05.362Z,99715.30
2023-04-27T21:36:32.704Z,99705.65
2023-04-27T21:39:00.062Z,99698.40
2023-04-27T21:41:27.643Z,99697.24
2023-04-27T21:43:54.965Z,99702.14
2023-04-27T21:46:24.142Z,99697.84
2023-04-27T21:48:51.635Z,99704.51
2023-04-27T21:51:18.979Z,99706.60
2023-04-27T21:53:46.534Z,99703.52
2023-04-27T21:56:13.884Z,99699.92
2023-04-27T21:58:41.452Z,99692.98
2023-04-27T22:01:08.697Z,99685.02
2023-04-27T22:03:36.124Z,99690.82
2023-04-27T22:06:04.220Z,99686.35
2023-04-27T22:08:31.511Z,99689.38
2023-04-27T22:10:58.935Z,99686.43
2023-04-27T22:13:26.604Z,99692.85
2023-04-27T22:15:53.871Z,99697.08
2023-04-27T22:18:21.201Z,99688.64
2023-04-27T22:20:49.687Z,99688.27
2023-04-27T22:23:17.033Z,99689.17
2023-04-27T22:25:44.502Z,99685.73
2023-04-27T22:28:11.856Z,99692.13
2023-04-27T22:30:40.400Z,99691.27
2023-04-27T22:33:07.757Z,99691.70
2023-04-27T22:35:36.612Z,99690.08
2023-04-27T22:38:04.183Z,99691.00
2023-04-27T22:40:31.690Z,99682.89
2023-04-27T22:42:58.972Z,99684.55
2023-04-27T22:45:26.314Z,99684.43
2023-04-27T22:47:54.288Z,99679.96
2023-04-27T22:50:21.737Z,99683.98
2023-04-27T22:52:49.184Z,99693.13
2023-04-27T22:55:16.433Z,99700.99
2023-04-27T22:57:43.686Z,99705.65
2023-04-27T23:00:12.069Z,99703.79
2023-04-27T23:02:43.111Z,99702.62
2023-04-27T23:05:13.446Z,99699.73
2023-04-27T23:07:43.454Z,99696.85
2023-04-27T23:10:11.316Z,99695.84
2023-04-27T23:12:39.095Z,99685.95
2023-04-27T23:15:06.953Z,99678.70
2023-04-27T23:17:34.330Z,99677.45
2023-04-27T23:20:01.958Z,99692.99
2023-04-27T23:22:29.619Z,99705.21
2023-04-27T23:24:56.976Z,99712.84
2023-04-27T23:27:25.211Z,99712.84
2023-04-27T23:29:53.064Z,99719.65
2023-04-27T23:32:21.040Z,99728.30
2023-04-27T23:34:48.542Z,99734.29
2023-04-27T23:37:15.799Z,99743.63
2023-04-27T23:39:43.045Z,99749.39
2023-04-27T23:42:10.298Z,99748.69
2023-04-27T23:44:37.656Z,99747.15
2023-04-27T23:47:05.007Z,99753.04
2023-04-27T23:49:32.464Z,99758.26
2023-04-27T23:51:59.721Z,99769.06
2023-04-27T23:54:31.744Z,99775.16
2023-04-27T23:56:59.038Z,99781.69
2023-04-27T23:59:26.395Z,99787.80
